Time;durP1;ratioP1;P1;durP2;ratioP2;P2;SDS_P1;SDS_P2;PMS_P1;PMS_P2;Temp;Humidity;BMP_temperature;BMP_pressure;BME280_temperature;BME280_humidity;BME280_pressure;Samples;Min_cycle;Max_cycle;Signal;HPM_P1;HPM_P2
2023/12/27 00:00:39;;;;;;;3.50;1.60;;;;;;;;;;5062373;27;88788;-66
2023/12/27 00:03:10;;;;;;;8.03;2.00;;;;;;;;;;5062770;27;87954;-66
2023/12/27 00:05:38;;;;;;;2.20;1.73;;;;;;;;;;5062795;27;89700;-66
2023/12/27 00:08:10;;;;;;;2.60;1.60;;;;;;;;;;5062897;27;89075;-66
2023/12/27 00:10:42;;;;;;;3.10;2.20;;;;;;;;;;5062469;27;88712;-66
2023/12/27 00:13:11;;;;;;;8.77;2.37;;;;;;;;;;5063303;27;87524;-66
2023/12/27 00:15:45;;;;;;;5.03;2.20;;;;;;;;;;5062547;27;89741;-66
2023/12/27 00:18:17;;;;;;;3.13;2.30;;;;;;;;;;5061987;27;89024;-66
2023/12/27 00:20:49;;;;;;;6.23;2.03;;;;;;;;;;5062394;27;87684;-66
2023/12/27 00:23:17;;;;;;;2.43;1.47;;;;;;;;;;5063384;27;87544;-66
2023/12/27 00:25:49;;;;;;;5.17;1.73;;;;;;;;;;5062843;27;89649;-66
2023/12/27 00:28:17;;;;;;;3.23;2.17;;;;;;;;;;5055909;27;90046;-66
2023/12/27 00:30:48;;;;;;;2.50;1.70;;;;;;;;;;5052149;27;89769;-66
2023/12/27 00:33:17;;;;;;;3.33;2.10;;;;;;;;;;5042326;28;87336;-66
2023/12/27 00:35:47;;;;;;;2.83;2.03;;;;;;;;;;5055885;27;90146;-65
2023/12/27 00:38:15;;;;;;;3.23;2.23;;;;;;;;;;5061622;27;89111;-66
2023/12/27 00:40:45;;;;;;;3.77;2.10;;;;;;;;;;5062422;27;88873;-66
2023/12/27 00:43:15;;;;;;;5.33;2.40;;;;;;;;;;5062561;27;87630;-66
2023/12/27 00:45:43;;;;;;;4.73;1.73;;;;;;;;;;5061980;27;89651;-66
2023/12/27 00:48:14;;;;;;;6.67;2.00;;;;;;;;;;5062871;27;87608;-66
2023/12/27 00:50:43;;;;;;;2.37;1.83;;;;;;;;;;5062267;27;88605;-66
2023/12/27 00:53:12;;;;;;;5.03;2.03;;;;;;;;;;5082994;27;87994;-66
2023/12/27 00:55:41;;;;;;;2.60;1.77;;;;;;;;;;5074428;27;89700;-66
2023/12/27 00:58:09;;;;;;;3.77;1.80;;;;;;;;;;5062275;27;87947;-66
2023/12/27 01:00:39;;;;;;;3.80;2.27;;;;;;;;;;5061752;27;88801;-66
2023/12/27 01:03:09;;;;;;;4.60;2.17;;;;;;;;;;5062274;27;87470;-66
2023/12/27 01:05:37;;;;;;;2.80;1.80;;;;;;;;;;5048895;27;89727;-66
2023/12/27 01:08:05;;;;;;;4.73;2.33;;;;;;;;;;5058911;27;89095;-66
2023/12/27 01:10:34;;;;;;;3.10;1.70;;;;;;;;;;5060429;27;88776;-66
2023/12/27 01:13:04;;;;;;;2.77;1.90;;;;;;;;;;5062087;27;87427;-66
2023/12/27 01:15:35;;;;;;;2.90;1.47;;;;;;;;;;5061873;27;89617;-66
2023/12/27 01:18:09;;;;;;;4.03;2.20;;;;;;;;;;5062531;27;89719;-66
2023/12/27 01:20:38;;;;;;;6.07;2.60;;;;;;;;;;5046547;27;88910;-66
2023/12/27 01:23:06;;;;;;;3.90;2.03;;;;;;;;;;5062712;27;87620;-66
2023/12/27 01:25:38;;;;;;;6.13;2.13;;;;;;;;;;5061668;27;89645;-66
2023/12/27 01:28:07;;;;;;;5.00;2.33;;;;;;;;;;5061586;27;89164;-66
2023/12/27 01:30:35;;;;;;;4.07;2.47;;;;;;;;;;5061054;27;88867;-66
2023/12/27 01:33:06;;;;;;;2.40;1.90;;;;;;;;;;5061530;27;87894;-66
2023/12/27 01:35:35;;;;;;;3.07;1.57;;;;;;;;;;5061709;27;89588;-66
2023/12/27 01:38:03;;;;;;;3.30;1.77;;;;;;;;;;5061837;27;89149;-66
2023/12/27 01:40:31;;;;;;;6.07;2.63;;;;;;;;;;5060952;27;88787;-66
2023/12/27 01:43:02;;;;;;;3.40;2.33;;;;;;;;;;5061776;27;87883;-66
2023/12/27 01:45:31;;;;;;;2.73;1.93;;;;;;;;;;5061672;27;89773;-66
2023/12/27 01:47:59;;;;;;;3.60;2.00;;;;;;;;;;5041259;28;88939;-66
2023/12/27 01:50:30;;;;;;;4.37;1.60;;;;;;;;;;5051144;27;88895;-66
2023/12/27 01:52:59;;;;;;;2.03;1.50;;;;;;;;;;5061323;27;87283;-66
2023/12/27 01:55:26;;;;;;;4.03;1.80;;;;;;;;;;5061780;27;89765;-66
2023/12/27 01:57:54;;;;;;;1.43;1.17;;;;;;;;;;5061195;27;89175;-66
2023/12/27 02:00:25;;;;;;;2.20;1.53;;;;;;;;;;5061155;27;88750;-66
2023/12/27 02:02:54;;;;;;;5.23;1.77;;;;;;;;;;5060996;27;87527;-66
2023/12/27 02:05:29;;;;;;;2.53;1.93;;;;;;;;;;5060559;27;89404;-66
2023/12/27 02:08:01;;;;;;;5.03;1.77;;;;;;;;;;5060682;27;90067;-66
2023/12/27 02:10:30;;;;;;;2.23;1.40;;;;;;;;;;5060945;27;90902;-66
2023/12/27 02:13:03;;;;;;;2.83;1.97;;;;;;;;;;5060870;27;87482;-66
2023/12/27 02:15:32;;;;;;;2.87;1.40;;;;;;;;;;5060735;27;89642;-66
2023/12/27 02:18:05;;;;;;;2.93;1.53;;;;;;;;;;5060112;27;89024;-66
2023/12/27 02:20:39;;;;;;;3.77;1.70;;;;;;;;;;5060661;27;88979;-67
2023/12/27 02:23:09;;;;;;;3.37;1.47;;;;;;;;;;5060218;27;87568;-67
2023/12/27 02:25:39;;;;;;;4.40;1.90;;;;;;;;;;5060992;27;89696;-66
2023/12/27 02:28:09;;;;;;;3.43;1.30;;;;;;;;;;5061132;27;89048;-66
2023/12/27 02:30:39;;;;;;;1.37;1.27;;;;;;;;;;5060832;27;88776;-66
2023/12/27 02:33:10;;;;;;;1.47;0.87;;;;;;;;;;5059884;27;88000;-66
2023/12/27 02:35:39;;;;;;;1.40;0.80;;;;;;;;;;5060909;27;89699;-66
2023/12/27 02:38:07;;;;;;;2.20;1.27;;;;;;;;;;5060863;27;89056;-66
2023/12/27 02:40:35;;;;;;;1.00;0.90;;;;;;;;;;5060248;27;88877;-66
2023/12/27 02:43:05;;;;;;;1.50;1.33;;;;;;;;;;5054540;27;87597;-66
2023/12/27 02:45:34;;;;;;;5.00;2.00;;;;;;;;;;5058156;27;90002;-66
2023/12/27 02:48:03;;;;;;;5.00;1.70;;;;;;;;;;5057197;27;88071;-65
2023/12/27 02:50:32;;;;;;;3.23;1.70;;;;;;;;;;5058089;27;87689;-66
2023/12/27 02:53:00;;;;;;;1.80;1.10;;;;;;;;;;5058287;27;87627;-65
2023/12/27 02:55:31;;;;;;;5.73;1.60;;;;;;;;;;5057742;27;89682;-65
2023/12/27 02:57:59;;;;;;;1.90;1.50;;;;;;;;;;5057702;27;90007;-66
2023/12/27 03:00:30;;;;;;;1.50;1.33;;;;;;;;;;5051879;27;89804;-66
2023/12/27 03:03:00;;;;;;;1.83;1.50;;;;;;;;;;5057439;27;87551;-66
2023/12/27 03:05:31;;;;;;;3.50;1.70;;;;;;;;;;5060609;27;90535;-66
2023/12/27 03:07:59;;;;;;;2.67;1.10;;;;;;;;;;5065701;27;89078;-66
2023/12/27 03:10:28;;;;;;;1.30;1.10;;;;;;;;;;5056432;27;87417;-66
2023/12/27 03:12:56;;;;;;;1.33;1.13;;;;;;;;;;5057294;27;87425;-66
2023/12/27 03:15:24;;;;;;;1.63;1.53;;;;;;;;;;5057052;27;89636;-66
2023/12/27 03:17:55;;;;;;;3.00;1.43;;;;;;;;;;5056174;27;89129;-66
2023/12/27 03:20:26;;;;;;;0.97;0.77;;;;;;;;;;5057098;27;88758;-66
2023/12/27 03:22:54;;;;;;;2.73;1.50;;;;;;;;;;5057284;27;88669;-66
2023/12/27 03:25:23;;;;;;;1.30;1.20;;;;;;;;;;5056882;27;89626;-67
2023/12/27 03:27:51;;;;;;;4.80;1.30;;;;;;;;;;5057268;27;89139;-66
2023/12/27 03:30:25;;;;;;;2.00;1.13;;;;;;;;;;5057284;27;88834;-65
2023/12/27 03:33:02;;;;;;;1.37;1.10;;;;;;;;;;5057391;27;88231;-67
2023/12/27 03:35:31;;;;;;;6.17;1.47;;;;;;;;;;5057383;27;89611;-66
2023/12/27 03:38:01;;;;;;;2.37;1.17;;;;;;;;;;5056791;27;89126;-66
2023/12/27 03:40:30;;;;;;;2.53;1.10;;;;;;;;;;5056796;27;88760;-72
2023/12/27 03:42:58;;;;;;;1.47;1.10;;;;;;;;;;5057296;27;87572;-66
2023/12/27 03:45:29;;;;;;;2.77;1.60;;;;;;;;;;5057689;27;89849;-66
2023/12/27 03:47:59;;;;;;;2.63;1.53;;;;;;;;;;5057328;27;90051;-66
2023/12/27 03:50:30;;;;;;;1.20;1.10;;;;;;;;;;5056885;27;90674;-65
2023/12/27 03:52:58;;;;;;;2.30;1.37;;;;;;;;;;5057204;27;87699;-65
2023/12/27 03:55:27;;;;;;;2.07;1.40;;;;;;;;;;5057241;27;89687;-66
2023/12/27 03:57:59;;;;;;;5.73;1.70;;;;;;;;;;5056804;27;87960;-66
2023/12/27 04:00:27;;;;;;;1.97;1.60;;;;;;;;;;5057002;27;88701;-65
2023/12/27 04:02:56;;;;;;;2.40;1.60;;;;;;;;;;5050867;27;87772;-65
2023/12/27 04:05:26;;;;;;;3.57;1.83;;;;;;;;;;5059593;27;92456;-65
2023/12/27 04:07:55;;;;;;;2.07;1.47;;;;;;;;;;5059374;27;87633;-65
2023/12/27 04:10:25;;;;;;;3.20;1.57;;;;;;;;;;5059399;27;88841;-66
2023/12/27 04:12:54;;;;;;;1.30;1.17;;;;;;;;;;5060113;27;87902;-66
2023/12/27 04:15:24;;;;;;;1.50;1.40;;;;;;;;;;5063094;27;88594;-65
2023/12/27 04:17:52;;;;;;;1.90;1.77;;;;;;;;;;5062823;27;89244;-66
2023/12/27 04:20:21;;;;;;;1.50;1.37;;;;;;;;;;5063626;27;89184;-65
2023/12/27 04:22:50;;;;;;;3.20;1.47;;;;;;;;;;5063687;27;87613;-66
2023/12/27 04:25:21;;;;;;;3.53;2.30;;;;;;;;;;5063305;27;89686;-65
2023/12/27 04:27:55;;;;;;;2.67;1.77;;;;;;;;;;5063592;27;89165;-66
2023/12/27 04:30:23;;;;;;;2.27;2.00;;;;;;;;;;5066001;27;88740;-65
2023/12/27 04:32:52;;;;;;;2.03;1.60;;;;;;;;;;5083424;27;87677;-66
2023/12/27 04:35:20;;;;;;;4.30;1.97;;;;;;;;;;5082837;27;89669;-66
2023/12/27 04:37:48;;;;;;;4.93;2.10;;;;;;;;;;5081887;27;90105;-66
2023/12/27 04:40:19;;;;;;;3.10;2.33;;;;;;;;;;5082923;27;89721;-66
2023/12/27 04:42:48;;;;;;;1.77;1.63;;;;;;;;;;5075854;27;87511;-66
2023/12/27 04:45:16;;;;;;;3.47;2.23;;;;;;;;;;5063179;27;89652;-66
2023/12/27 04:47:44;;;;;;;4.10;2.23;;;;;;;;;;5063248;27;89201;-66
2023/12/27 04:50:13;;;;;;;3.57;2.23;;;;;;;;;;5063188;27;88310;-66
2023/12/27 04:52:43;;;;;;;2.33;2.00;;;;;;;;;;5063308;27;87623;-66
2023/12/27 04:55:12;;;;;;;2.03;1.80;;;;;;;;;;5063093;27;90411;-66
2023/12/27 04:57:44;;;;;;;2.53;2.10;;;;;;;;;;5063004;27;89099;-66
2023/12/27 05:00:13;;;;;;;2.87;2.27;;;;;;;;;;5062174;27;88909;-66
2023/12/27 05:02:42;;;;;;;3.67;2.30;;;;;;;;;;5061797;27;87806;-66
2023/12/27 05:05:13;;;;;;;2.87;1.83;;;;;;;;;;5062356;27;89645;-66
2023/12/27 05:07:41;;;;;;;3.40;2.03;;;;;;;;;;5061694;27;89151;-66
2023/12/27 05:10:15;;;;;;;2.00;1.37;;;;;;;;;;5062170;27;88842;-65
2023/12/27 05:12:44;;;;;;;3.87;1.77;;;;;;;;;;5062294;27;88818;-66
2023/12/27 05:15:13;;;;;;;2.73;2.40;;;;;;;;;;5062060;27;89764;-66
2023/12/27 05:17:41;;;;;;;4.33;2.33;;;;;;;;;;5062249;27;89278;-65
2023/12/27 05:20:13;;;;;;;3.73;1.70;;;;;;;;;;5061785;27;88882;-65
2023/12/27 05:22:41;;;;;;;2.53;1.80;;;;;;;;;;5062635;27;87547;-65
2023/12/27 05:25:10;;;;;;;3.00;1.60;;;;;;;;;;5061160;27;90551;-65
2023/12/27 05:27:38;;;;;;;3.03;1.53;;;;;;;;;;5061780;27;90165;-66
2023/12/27 05:30:09;;;;;;;3.67;2.10;;;;;;;;;;5061999;27;88456;-66
2023/12/27 05:32:38;;;;;;;3.53;2.10;;;;;;;;;;5062620;27;87458;-66
2023/12/27 05:35:10;;;;;;;5.80;2.30;;;;;;;;;;5061839;27;88565;-66
2023/12/27 05:37:39;;;;;;;3.47;2.07;;;;;;;;;;5062117;27;89113;-66
2023/12/27 05:40:12;;;;;;;3.10;1.90;;;;;;;;;;5062085;27;87489;-66
2023/12/27 05:42:40;;;;;;;2.50;1.80;;;;;;;;;;5062603;27;87564;-66
2023/12/27 05:45:18;;;;;;;3.20;1.70;;;;;;;;;;5061520;27;89779;-66
2023/12/27 05:47:48;;;;;;;1.90;1.50;;;;;;;;;;5061624;27;89160;-65
2023/12/27 05:50:18;;;;;;;5.03;1.73;;;;;;;;;;5061425;27;91105;-66
2023/12/27 05:52:47;;;;;;;6.43;2.20;;;;;;;;;;5062058;27;87821;-65
2023/12/27 05:55:15;;;;;;;1.87;1.70;;;;;;;;;;5061691;27;89683;-65
2023/12/27 05:57:50;;;;;;;2.33;1.63;;;;;;;;;;5061005;27;89170;-66
2023/12/27 06:00:21;;;;;;;2.00;1.40;;;;;;;;;;5061452;27;89747;-65
2023/12/27 06:02:50;;;;;;;4.43;1.70;;;;;;;;;;5061773;27;87522;-66
2023/12/27 06:05:22;;;;;;;1.90;1.30;;;;;;;;;;5060812;27;89860;-65
2023/12/27 06:07:50;;;;;;;1.40;1.30;;;;;;;;;;5060600;27;89133;-66
2023/12/27 06:10:22;;;;;;;3.63;2.10;;;;;;;;;;5061560;27;88804;-66
2023/12/27 06:12:50;;;;;;;1.17;1.07;;;;;;;;;;5061467;27;87365;-66
2023/12/27 06:15:24;;;;;;;1.70;1.60;;;;;;;;;;5060994;27;89608;-66
2023/12/27 06:17:53;;;;;;;2.03;1.60;;;;;;;;;;5060397;27;90230;-66
2023/12/27 06:20:26;;;;;;;2.23;1.33;;;;;;;;;;5060904;27;89853;-66
2023/12/27 06:22:56;;;;;;;3.33;1.63;;;;;;;;;;5061078;27;87560;-66
2023/12/27 06:25:26;;;;;;;1.73;1.47;;;;;;;;;;5053417;27;89661;-66
2023/12/27 06:27:58;;;;;;;4.03;1.83;;;;;;;;;;5040548;28;89079;-66
2023/12/27 06:30:28;;;;;;;2.17;1.37;;;;;;;;;;5040642;28;89145;-66
2023/12/27 06:32:59;;;;;;;4.77;1.83;;;;;;;;;;5040678;28;87668;-66
2023/12/27 06:35:28;;;;;;;2.33;1.13;;;;;;;;;;5039739;27;88292;-65
2023/12/27 06:37:57;;;;;;;1.97;1.63;;;;;;;;;;5041056;28;89110;-66
2023/12/27 06:40:27;;;;;;;1.43;1.27;;;;;;;;;;5041058;28;88919;-66
2023/12/27 06:42:56;;;;;;;2.00;1.40;;;;;;;;;;5040865;28;87836;-66
2023/12/27 06:45:26;;;;;;;1.40;1.30;;;;;;;;;;5060530;27;89690;-66
2023/12/27 06:47:56;;;;;;;2.40;1.40;;;;;;;;;;5061069;27;90135;-66
2023/12/27 06:50:24;;;;;;;1.40;1.30;;;;;;;;;;5061437;27;88855;-66
2023/12/27 06:52:55;;;;;;;1.47;1.00;;;;;;;;;;5061196;27;87619;-66
2023/12/27 06:55:26;;;;;;;2.87;1.20;;;;;;;;;;5061119;27;88849;-66
2023/12/27 06:57:56;;;;;;;1.40;1.20;;;;;;;;;;5060548;27;88771;-66
2023/12/27 07:00:25;;;;;;;2.23;1.20;;;;;;;;;;5060343;27;88885;-66
2023/12/27 07:02:55;;;;;;;2.93;0.97;;;;;;;;;;5061048;27;88518;-66
2023/12/27 07:05:28;;;;;;;1.10;1.00;;;;;;;;;;5061206;27;89671;-65
2023/12/27 07:07:56;;;;;;;1.70;1.20;;;;;;;;;;5060429;27;90209;-66
2023/12/27 07:10:36;;;;;;;1.00;0.90;;;;;;;;;;5060967;27;89943;-66
2023/12/27 07:13:05;;;;;;;1.43;1.03;;;;;;;;;;5061010;27;87429;-66
2023/12/27 07:15:38;;;;;;;5.00;1.57;;;;;;;;;;5059345;27;89703;-66
2023/12/27 07:18:12;;;;;;;1.17;0.97;;;;;;;;;;5064085;27;87801;-67
2023/12/27 07:20:42;;;;;;;1.97;1.17;;;;;;;;;;5075806;27;88853;-66
2023/12/27 07:23:10;;;;;;;1.17;1.07;;;;;;;;;;5060817;27;88020;-66
2023/12/27 07:25:43;;;;;;;2.07;1.00;;;;;;;;;;5063732;27;89687;-66
2023/12/27 07:28:13;;;;;;;2.57;1.60;;;;;;;;;;5080817;27;89079;-66
2023/12/27 07:30:44;;;;;;;1.07;1.00;;;;;;;;;;5077275;27;87547;-72
2023/12/27 07:33:15;;;;;;;1.50;1.40;;;;;;;;;;5060394;27;87858;-70
2023/12/27 07:35:44;;;;;;;1.33;1.20;;;;;;;;;;5067691;27;90000;-70
2023/12/27 07:38:12;;;;;;;2.00;1.60;;;;;;;;;;5059987;27;89190;-70
2023/12/27 07:40:43;;;;;;;1.97;1.13;;;;;;;;;;5059428;27;88869;-70
2023/12/27 07:43:11;;;;;;;1.27;0.90;;;;;;;;;;5060174;27;87805;-70
2023/12/27 07:45:39;;;;;;;2.30;1.40;;;;;;;;;;5062273;27;87585;-70
2023/12/27 07:48:10;;;;;;;0.80;0.80;;;;;;;;;;5081607;27;87998;-69
2023/12/27 07:50:40;;;;;;;2.43;1.57;;;;;;;;;;5063245;27;89885;-69
2023/12/27 07:53:09;;;;;;;2.23;1.53;;;;;;;;;;5066560;27;87510;-64
2023/12/27 07:55:37;;;;;;;2.47;1.40;;;;;;;;;;5063937;27;89636;-70
2023/12/27 07:58:05;;;;;;;1.60;1.30;;;;;;;;;;5062084;27;90060;-71
2023/12/27 08:00:34;;;;;;;1.37;1.23;;;;;;;;;;5062739;27;88697;-69
2023/12/27 08:03:08;;;;;;;1.50;1.40;;;;;;;;;;5063575;27;87283;-69
2023/12/27 08:05:39;;;;;;;1.97;1.40;;;;;;;;;;5063739;27;89567;-70
2023/12/27 08:08:12;;;;;;;1.13;1.00;;;;;;;;;;5063083;27;88988;-69
2023/12/27 08:10:40;;;;;;;0.87;0.80;;;;;;;;;;5063548;27;88748;-70
2023/12/27 08:13:11;;;;;;;2.53;1.50;;;;;;;;;;5062295;27;87753;-70
2023/12/27 08:15:40;;;;;;;3.90;1.70;;;;;;;;;;5061972;27;88708;-70
2023/12/27 08:18:11;;;;;;;2.10;1.50;;;;;;;;;;5062894;27;89291;-70
2023/12/27 08:20:39;;;;;;;2.07;1.70;;;;;;;;;;5063302;27;88847;-70
2023/12/27 08:23:09;;;;;;;2.00;1.47;;;;;;;;;;5062315;27;88246;-70
2023/12/27 08:25:37;;;;;;;1.60;1.33;;;;;;;;;;5067821;27;89574;-69
2023/12/27 08:28:08;;;;;;;2.03;1.43;;;;;;;;;;5077238;27;92341;-69
2023/12/27 08:30:38;;;;;;;2.27;1.90;;;;;;;;;;5062170;27;87712;-69
2023/12/27 08:33:07;;;;;;;3.93;1.80;;;;;;;;;;5062805;27;87572;-65
2023/12/27 08:35:39;;;;;;;2.63;1.80;;;;;;;;;;5063005;27;88504;-66
2023/12/27 08:38:08;;;;;;;3.97;2.03;;;;;;;;;;5063164;27;87683;-67
2023/12/27 08:40:38;;;;;;;2.77;1.90;;;;;;;;;;5062814;27;88914;-65
2023/12/27 08:43:06;;;;;;;2.37;1.47;;;;;;;;;;5062311;27;87676;-65
2023/12/27 08:45:36;;;;;;;2.80;2.20;;;;;;;;;;5060904;27;89619;-66
2023/12/27 08:48:06;;;;;;;2.37;1.60;;;;;;;;;;5057282;27;90085;-65
2023/12/27 08:50:36;;;;;;;2.77;2.27;;;;;;;;;;5061073;27;89741;-66
2023/12/27 08:53:13;;;;;;;3.17;2.00;;;;;;;;;;5062859;27;87616;-66
2023/12/27 08:55:42;;;;;;;2.40;2.10;;;;;;;;;;5064519;27;89605;-66
2023/12/27 08:58:12;;;;;;;2.27;2.03;;;;;;;;;;5062940;27;87963;-66
2023/12/27 09:00:46;;;;;;;2.77;1.93;;;;;;;;;;5062154;27;88888;-68
2023/12/27 09:03:14;;;;;;;3.40;1.80;;;;;;;;;;5063536;27;87588;-67
2023/12/27 09:05:46;;;;;;;3.50;2.07;;;;;;;;;;5062732;27;89736;-67
2023/12/27 09:08:14;;;;;;;3.23;1.50;;;;;;;;;;5062961;27;89166;-65
2023/12/27 09:10:44;;;;;;;6.10;2.50;;;;;;;;;;5059625;27;89032;-66
2023/12/27 09:13:12;;;;;;;2.80;2.10;;;;;;;;;;5059796;27;87995;-66
2023/12/27 09:15:41;;;;;;;2.53;1.80;;;;;;;;;;5061846;27;89845;-65
2023/12/27 09:18:09;;;;;;;2.40;2.20;;;;;;;;;;5060939;27;89189;-65
2023/12/27 09:20:38;;;;;;;7.27;2.23;;;;;;;;;;5061627;27;91898;-66
2023/12/27 09:23:07;;;;;;;3.47;2.60;;;;;;;;;;5051227;27;87595;-67
2023/12/27 09:25:35;;;;;;;4.07;2.60;;;;;;;;;;5061022;27;88484;-67
2023/12/27 09:28:07;;;;;;;3.37;2.57;;;;;;;;;;5067549;27;88896;-67
2023/12/27 09:30:38;;;;;;;2.93;2.50;;;;;;;;;;5055144;27;88936;-67
2023/12/27 09:33:11;;;;;;;9.63;2.07;;;;;;;;;;5061868;27;87526;-67
2023/12/27 09:35:43;;;;;;;3.40;2.47;;;;;;;;;;5061689;27;89950;-67
2023/12/27 09:38:13;;;;;;;4.27;3.13;;;;;;;;;;5061827;27;90048;-66
2023/12/27 09:40:42;;;;;;;4.83;2.57;;;;;;;;;;5061981;27;89869;-67
2023/12/27 09:43:12;;;;;;;3.93;2.60;;;;;;;;;;5060597;27;87599;-66
2023/12/27 09:45:46;;;;;;;6.70;2.97;;;;;;;;;;5062283;27;88499;-66
2023/12/27 09:48:15;;;;;;;5.07;2.33;;;;;;;;;;5061667;27;88394;-67
2023/12/27 09:50:44;;;;;;;4.80;3.10;;;;;;;;;;5061662;27;88907;-66
2023/12/27 09:53:12;;;;;;;2.40;1.93;;;;;;;;;;5060994;27;87719;-66
2023/12/27 09:55:42;;;;;;;5.53;3.00;;;;;;;;;;5061963;27;89546;-66
2023/12/27 09:58:15;;;;;;;4.33;3.00;;;;;;;;;;5062175;27;89101;-67
2023/12/27 10:00:46;;;;;;;2.93;2.40;;;;;;;;;;5041745;28;88845;-66
2023/12/27 10:03:19;;;;;;;4.40;3.07;;;;;;;;;;5041735;27;88095;-67
2023/12/27 10:05:50;;;;;;;3.83;2.83;;;;;;;;;;5057490;27;89788;-66
2023/12/27 10:08:23;;;;;;;4.63;3.27;;;;;;;;;;5060078;27;89033;-66
2023/12/27 10:10:51;;;;;;;6.10;3.33;;;;;;;;;;5061040;27;88861;-67
2023/12/27 10:13:25;;;;;;;4.77;2.57;;;;;;;;;;5062122;27;87302;-66
2023/12/27 10:15:54;;;;;;;4.70;3.50;;;;;;;;;;5060735;27;89582;-66
2023/12/27 10:18:23;;;;;;;6.67;3.77;;;;;;;;;;5061621;27;89148;-66
2023/12/27 10:20:54;;;;;;;5.60;3.60;;;;;;;;;;5061790;27;88928;-66
2023/12/27 10:23:25;;;;;;;5.20;3.40;;;;;;;;;;5061833;27;87877;-66
2023/12/27 10:25:54;;;;;;;4.70;3.10;;;;;;;;;;5061323;27;89793;-66
2023/12/27 10:28:29;;;;;;;6.87;4.40;;;;;;;;;;5060825;27;90058;-66
2023/12/27 10:31:03;;;;;;;3.93;2.93;;;;;;;;;;5061413;27;89771;-66
2023/12/27 10:33:37;;;;;;;6.27;4.13;;;;;;;;;;5061519;27;87510;-67
2023/12/27 10:36:08;;;;;;;5.50;3.90;;;;;;;;;;5060153;27;87394;-66
2023/12/27 10:38:38;;;;;;;9.00;4.17;;;;;;;;;;5061223;27;89007;-67
2023/12/27 10:41:07;;;;;;;6.57;4.00;;;;;;;;;;5060425;27;88850;-67
2023/12/27 10:43:42;;;;;;;8.10;5.07;;;;;;;;;;5076974;27;87317;-67
2023/12/27 10:46:13;;;;;;;6.93;4.47;;;;;;;;;;5069564;27;89270;-68
2023/12/27 10:48:43;;;;;;;7.33;5.03;;;;;;;;;;5060605;27;89180;-68
2023/12/27 10:51:15;;;;;;;7.37;4.97;;;;;;;;;;5061415;27;89057;-69
2023/12/27 10:53:43;;;;;;;7.13;4.70;;;;;;;;;;5058075;27;87985;-67
2023/12/27 10:56:12;;;;;;;8.30;4.63;;;;;;;;;;5050539;27;89589;-73
2023/12/27 10:58:43;;;;;;;7.10;4.57;;;;;;;;;;5061720;27;89640;-73
2023/12/27 11:01:14;;;;;;;7.80;5.90;;;;;;;;;;5071305;27;88819;-72
2023/12/27 11:03:45;;;;;;;10.37;6.43;;;;;;;;;;5074645;27;87545;-73
2023/12/27 11:06:17;;;;;;;8.20;5.00;;;;;;;;;;5064291;27;89982;-71
2023/12/27 11:08:45;;;;;;;10.10;5.33;;;;;;;;;;5065756;27;89041;-72
2023/12/27 11:11:14;;;;;;;11.30;6.20;;;;;;;;;;5071409;27;88961;-71
2023/12/27 11:13:44;;;;;;;10.83;6.00;;;;;;;;;;5065058;27;88313;-71
2023/12/27 11:16:13;;;;;;;10.73;6.00;;;;;;;;;;5076979;27;91990;-71
2023/12/27 11:18:46;;;;;;;10.00;6.60;;;;;;;;;;5048321;27;89967;-71
2023/12/27 11:21:15;;;;;;;10.23;6.40;;;;;;;;;;5060070;27;88857;-71
2023/12/27 11:23:50;;;;;;;12.97;8.37;;;;;;;;;;5063827;27;87667;-73
2023/12/27 11:26:21;;;;;;;9.97;7.47;;;;;;;;;;5080745;27;88732;-73
2023/12/27 11:28:50;;;;;;;12.13;8.20;;;;;;;;;;5053815;27;89171;-68
2023/12/27 11:31:20;;;;;;;11.40;7.63;;;;;;;;;;5073584;27;88972;-68
2023/12/27 11:33:50;;;;;;;17.10;9.57;;;;;;;;;;5059196;27;88918;-67
2023/12/27 11:36:23;;;;;;;12.83;7.67;;;;;;;;;;5080786;27;89615;-68
2023/12/27 11:38:51;;;;;;;13.13;8.83;;;;;;;;;;5069180;27;89396;-68
2023/12/27 11:41:19;;;;;;;12.73;8.50;;;;;;;;;;5076586;27;89014;-68
2023/12/27 11:44:03;;;;;;;12.07;8.43;;;;;;;;;;5065310;27;89444;-68
2023/12/27 11:46:32;;;;;;;14.87;9.07;;;;;;;;;;5062381;27;89696;-68
2023/12/27 11:49:05;;;;;;;18.43;10.70;;;;;;;;;;5069953;27;89370;-67
2023/12/27 11:51:34;;;;;;;16.80;10.53;;;;;;;;;;5062977;27;87868;-66
2023/12/27 11:54:02;;;;;;;14.63;9.07;;;;;;;;;;5063225;27;87538;-66
2023/12/27 11:56:36;;;;;;;19.17;10.73;;;;;;;;;;5063959;27;89591;-66
2023/12/27 11:59:11;;;;;;;21.13;10.40;;;;;;;;;;5063531;27;89065;-67
2023/12/27 12:01:41;;;;;;;15.20;9.80;;;;;;;;;;5062188;27;88996;-66
2023/12/27 12:04:30;;;;;;;16.80;10.37;;;;;;;;;;5063442;27;87380;-65
2023/12/27 12:07:21;;;;;;;15.37;10.13;;;;;;;;;;5053323;27;89608;-66
2023/12/27 12:09:59;;;;;;;20.40;10.10;;;;;;;;;;5036850;27;90265;-68
2023/12/27 12:12:32;;;;;;;17.50;11.93;;;;;;;;;;5063157;27;89865;-70
2023/12/27 12:15:02;;;;;;;17.23;10.50;;;;;;;;;;5062733;27;87492;-70
2023/12/27 12:17:36;;;;;;;20.13;11.07;;;;;;;;;;5062819;27;90039;-69
2023/12/27 12:20:07;;;;;;;18.33;11.97;;;;;;;;;;5063259;27;89110;-70
2023/12/27 12:22:37;;;;;;;19.47;12.13;;;;;;;;;;5061171;27;89089;-69
2023/12/27 12:25:09;;;;;;;17.87;10.63;;;;;;;;;;5059325;27;87699;-70
2023/12/27 12:27:44;;;;;;;19.27;11.33;;;;;;;;;;5076731;27;89609;-71
2023/12/27 12:30:18;;;;;;;18.57;11.17;;;;;;;;;;5053186;27;89271;-71
2023/12/27 12:32:48;;;;;;;18.70;11.87;;;;;;;;;;5078215;27;89455;-71
2023/12/27 12:35:17;;;;;;;17.90;11.47;;;;;;;;;;5063917;27;87990;-70
2023/12/27 12:37:46;;;;;;;22.30;11.63;;;;;;;;;;5074974;27;89771;-71
2023/12/27 12:40:15;;;;;;;25.10;13.40;;;;;;;;;;5061170;27;89080;-71
2023/12/27 12:42:50;;;;;;;22.13;13.33;;;;;;;;;;5073389;27;88585;-70
2023/12/27 12:45:22;;;;;;;24.33;13.63;;;;;;;;;;5060117;27;87652;-70
2023/12/27 12:47:51;;;;;;;19.73;13.23;;;;;;;;;;5070711;27;88748;-69
2023/12/27 12:50:19;;;;;;;18.30;12.53;;;;;;;;;;5063373;27;89061;-67
2023/12/27 12:52:50;;;;;;;17.53;11.47;;;;;;;;;;5060412;27;88914;-71
2023/12/27 12:55:19;;;;;;;18.93;13.17;;;;;;;;;;5061527;27;87610;-70
2023/12/27 12:57:48;;;;;;;18.23;11.90;;;;;;;;;;5074821;27;88994;-70
2023/12/27 13:00:23;;;;;;;19.63;12.23;;;;;;;;;;5064733;27;90086;-66
2023/12/27 13:02:51;;;;;;;17.10;11.87;;;;;;;;;;5075062;27;89875;-67
2023/12/27 13:05:20;;;;;;;23.60;13.53;;;;;;;;;;5066412;27;87634;-66
2023/12/27 13:07:49;;;;;;;19.53;13.30;;;;;;;;;;5066575;27;89704;-65
2023/12/27 13:10:17;;;;;;;20.60;12.33;;;;;;;;;;5061952;27;89294;-69
2023/12/27 13:12:48;;;;;;;21.20;13.00;;;;;;;;;;5067551;27;89177;-67
2023/12/27 13:15:19;;;;;;;19.23;12.33;;;;;;;;;;5069184;27;87681;-67
2023/12/27 13:17:53;;;;;;;21.50;13.13;;;;;;;;;;5074462;27;89612;-66
2023/12/27 13:20:22;;;;;;;22.50;11.97;;;;;;;;;;5061160;27;89268;-66
2023/12/27 13:22:54;;;;;;;20.73;13.47;;;;;;;;;;5060492;27;88795;-70
2023/12/27 13:25:24;;;;;;;18.67;11.63;;;;;;;;;;5056520;27;88059;-67
2023/12/27 13:27:53;;;;;;;20.83;13.00;;;;;;;;;;5058401;27;89944;-68
2023/12/27 13:30:33;;;;;;;21.23;11.40;;;;;;;;;;5057546;27;88087;-68
2023/12/27 13:33:03;;;;;;;19.30;12.73;;;;;;;;;;5060835;27;88965;-67
2023/12/27 13:35:32;;;;;;;19.73;10.87;;;;;;;;;;5057595;27;87613;-67
2023/12/27 13:38:03;;;;;;;19.43;12.17;;;;;;;;;;5060718;27;89631;-67
2023/12/27 13:40:34;;;;;;;18.60;12.23;;;;;;;;;;5060502;27;92070;-67
2023/12/27 13:43:02;;;;;;;15.80;10.63;;;;;;;;;;5061017;27;88955;-66
2023/12/27 13:45:31;;;;;;;16.03;10.40;;;;;;;;;;5060185;27;87683;-67
2023/12/27 13:48:00;;;;;;;13.20;8.77;;;;;;;;;;5056175;27;89753;-66
2023/12/27 13:50:33;;;;;;;11.80;7.67;;;;;;;;;;5057638;27;90195;-66
2023/12/27 13:53:05;;;;;;;10.83;7.53;;;;;;;;;;5057487;27;89437;-67
2023/12/27 13:55:33;;;;;;;8.87;6.73;;;;;;;;;;5061135;27;89461;-67
2023/12/27 13:58:02;;;;;;;17.57;6.93;;;;;;;;;;5060715;27;89856;-67
2023/12/27 14:00:31;;;;;;;8.37;6.10;;;;;;;;;;5060075;27;89140;-67
2023/12/27 14:02:59;;;;;;;11.33;7.03;;;;;;;;;;5060657;27;88902;-66
2023/12/27 14:05:31;;;;;;;10.10;6.83;;;;;;;;;;5061165;27;87625;-67
2023/12/27 14:08:02;;;;;;;11.77;6.77;;;;;;;;;;5058545;27;88080;-66
2023/12/27 14:10:30;;;;;;;9.47;6.37;;;;;;;;;;5060293;27;89657;-66
2023/12/27 14:12:59;;;;;;;11.40;5.83;;;;;;;;;;5060544;27;87526;-66
2023/12/27 14:15:28;;;;;;;11.07;7.20;;;;;;;;;;5060158;27;88366;-66
2023/12/27 14:17:57;;;;;;;7.63;5.03;;;;;;;;;;5060272;27;89612;-66
2023/12/27 14:20:25;;;;;;;9.50;6.63;;;;;;;;;;5057629;27;87913;-66
2023/12/27 14:22:54;;;;;;;9.17;6.60;;;;;;;;;;5060123;27;89236;-66
2023/12/27 14:25:25;;;;;;;14.23;7.23;;;;;;;;;;5060877;27;88531;-66
2023/12/27 14:27:54;;;;;;;16.57;6.87;;;;;;;;;;5059348;27;89563;-66
2023/12/27 14:30:22;;;;;;;12.87;8.13;;;;;;;;;;5058932;27;88447;-66
2023/12/27 14:32:50;;;;;;;11.67;7.33;;;;;;;;;;5058858;27;88897;-67
2023/12/27 14:35:19;;;;;;;10.73;7.37;;;;;;;;;;5061368;27;87594;-66
2023/12/27 14:37:48;;;;;;;14.63;8.73;;;;;;;;;;5059659;27;89707;-66
2023/12/27 14:40:16;;;;;;;11.30;7.07;;;;;;;;;;5060505;27;90043;-66
2023/12/27 14:42:46;;;;;;;9.40;6.83;;;;;;;;;;5057661;27;89810;-66
2023/12/27 14:45:15;;;;;;;10.67;5.83;;;;;;;;;;5061576;27;87542;-66
2023/12/27 14:47:45;;;;;;;12.70;6.80;;;;;;;;;;5060846;27;89692;-67
2023/12/27 14:50:14;;;;;;;8.73;6.20;;;;;;;;;;5056912;27;88433;-67
2023/12/27 14:52:42;;;;;;;9.40;5.70;;;;;;;;;;5060397;27;88925;-68
2023/12/27 14:55:11;;;;;;;10.40;6.30;;;;;;;;;;5059371;27;87617;-67